createdAt,value
2018-08-12T00:00:05.529Z,965.88
2018-08-12T00:15:04.702Z,965.82
2018-08-12T00:30:05.034Z,965.98
2018-08-12T00:45:04.419Z,965.96
2018-08-12T01:00:04.728Z,966.29
2018-08-12T01:15:05.219Z,966.12
2018-08-12T01:30:05.280Z,966.29
2018-08-12T01:45:04.706Z,966.31
2018-08-12T02:00:04.841Z,966.48
2018-08-12T02:15:04.922Z,966.45
2018-08-12T02:30:05.041Z,966.37
2018-08-12T02:45:05.297Z,966.42
2018-08-12T03:00:04.785Z,966.59
2018-08-12T03:15:04.887Z,966.42
2018-08-12T03:30:05.875Z,966.42
2018-08-12T03:45:04.924Z,966.56
2018-08-12T04:00:04.842Z,966.56
2018-08-12T04:15:04.932Z,966.84
2018-08-12T04:30:04.822Z,966.73
2018-08-12T04:45:04.851Z,966.73
2018-08-12T05:00:05.112Z,966.56
2018-08-12T05:15:05.173Z,966.56
2018-08-12T05:30:04.752Z,966.09
2018-08-12T05:45:04.683Z,965.68
2018-08-12T06:00:05.365Z,965.24
2018-08-12T06:15:05.493Z,964.56
2018-08-12T06:30:05.217Z,964.04
2018-08-12T06:45:05.162Z,963.52
2018-08-12T07:00:10.273Z,963.19
2018-08-12T07:15:05.194Z,962.25
2018-08-12T07:30:04.927Z,961.29
2018-08-12T07:45:04.845Z,964.1
2018-08-12T08:00:05.460Z,964.24
2018-08-12T08:15:06.023Z,961.34
2018-08-12T08:30:05.198Z,961.73
2018-08-12T08:45:04.722Z,960.56
2018-08-12T09:00:09.676Z,965.99
2018-08-12T09:15:05.019Z,966.63
2018-08-12T09:30:05.009Z,960.56
2018-08-12T09:45:09.516Z,966.3
2018-08-12T10:00:04.474Z,960.26
2018-08-12T10:15:04.615Z,960.31
2018-08-12T10:30:05.571Z,960.98
2018-08-12T10:45:05.082Z,961.03
2018-08-12T11:00:04.486Z,960.73
2018-08-12T11:15:05.095Z,960.92
2018-08-12T11:30:04.916Z,960.64
2018-08-12T11:45:04.407Z,960.26
2018-08-12T12:00:06.058Z,960.42
2018-08-12T12:15:04.799Z,959.73
2018-08-12T12:30:04.512Z,959.4
2018-08-12T12:45:04.486Z,959.32
2018-08-12T13:00:04.966Z,958.9
2018-08-12T13:15:04.448Z,958.32
2018-08-12T13:30:09.618Z,958.18
2018-08-12T13:45:05.014Z,958.04
2018-08-12T14:00:09.496Z,957.77
2018-08-12T14:15:05.082Z,957.21
2018-08-12T14:30:04.609Z,964.21
2018-08-12T14:45:05.225Z,963.99
2018-08-12T15:00:14.858Z,956.61
2018-08-12T15:15:05.018Z,963.51
2018-08-12T15:30:04.924Z,963.51
2018-08-12T15:45:05.473Z,963.18
2018-08-12T16:00:04.874Z,962.98
2018-08-12T16:15:10.504Z,962.73
2018-08-12T16:30:05.228Z,962.54
2018-08-12T16:45:05.190Z,963.01
2018-08-12T17:00:04.698Z,962.43
2018-08-12T17:15:20.163Z,962.45
2018-08-12T17:30:05.373Z,962.48
2018-08-12T17:45:05.313Z,962.76
2018-08-12T18:00:05.475Z,955.69
2018-08-12T18:15:09.684Z,955.78
2018-08-12T18:30:05.315Z,956.03
2018-08-12T18:45:05.018Z,956.33
2018-08-12T19:00:06.394Z,956.77
2018-08-12T19:15:04.729Z,957.27
2018-08-12T19:30:04.618Z,957.8
2018-08-12T19:45:05.209Z,958.1
2018-08-12T20:00:04.883Z,958.18
2018-08-12T20:15:05.297Z,958.35
2018-08-12T20:30:04.972Z,958.87
2018-08-12T20:45:10.114Z,958.85
2018-08-12T21:00:04.647Z,959.15
2018-08-12T21:15:05.096Z,959.26
2018-08-12T21:30:05.022Z,959.56
2018-08-12T21:45:04.813Z,959.76
2018-08-12T22:00:05.477Z,959.95
2018-08-12T22:15:04.749Z,960.26
2018-08-12T22:30:04.562Z,960.28
2018-08-12T22:45:05.819Z,960.42
2018-08-12T23:00:05.620Z,960.51
2018-08-12T23:15:05.635Z,960.48
2018-08-12T23:30:04.771Z,960.42
2018-08-12T23:45:05.522Z,960.51
